createdAt,value
2017-07-18T00:00:35.937Z,0
2017-07-18T00:01:46.149Z,0
2017-07-18T00:02:56.128Z,0
2017-07-18T00:04:06.420Z,0
2017-07-18T00:05:16.704Z,0
2017-07-18T00:06:26.986Z,0
2017-07-18T00:07:36.895Z,0
2017-07-18T00:08:47.198Z,0
2017-07-18T00:09:57.165Z,0
2017-07-18T00:11:07.460Z,0
2017-07-18T00:12:17.438Z,0
2017-07-18T00:13:27.981Z,0
2017-07-18T00:14:38.261Z,0
2017-07-18T00:15:48.236Z,0
2017-07-18T00:16:58.206Z,0
2017-07-18T00:18:08.503Z,0
2017-07-18T00:19:19.045Z,0
2017-07-18T00:20:29.337Z,0
2017-07-18T00:21:39.299Z,0
2017-07-18T00:22:49.583Z,0
2017-07-18T00:23:59.549Z,0
2017-07-18T00:25:10.090Z,0
2017-07-18T00:26:20.370Z,0
2017-07-18T00:27:30.344Z,0
2017-07-18T00:28:40.630Z,0
2017-07-18T00:29:50.913Z,0
2017-07-18T00:31:01.435Z,0
2017-07-18T00:32:11.747Z,0
2017-07-18T00:33:22.017Z,0
2017-07-18T00:34:32.294Z,0
2017-07-18T00:35:42.283Z,0
2017-07-18T00:36:52.824Z,0
2017-07-18T00:38:03.115Z,0
2017-07-18T00:39:13.385Z,0
2017-07-18T00:40:23.356Z,0
2017-07-18T00:41:33.641Z,0
2017-07-18T00:42:43.563Z,0
2017-07-18T00:43:53.856Z,0
2017-07-18T00:45:04.146Z,0
2017-07-18T00:46:14.423Z,0
2017-07-18T00:47:24.388Z,0
2017-07-18T00:48:34.611Z,0
2017-07-18T00:49:44.892Z,0
2017-07-18T00:50:55.170Z,0
2017-07-18T00:52:05.137Z,0
2017-07-18T00:53:15.421Z,0
2017-07-18T00:54:25.958Z,0
2017-07-18T00:55:36.244Z,0
2017-07-18T00:56:46.542Z,0
2017-07-18T00:57:56.546Z,0
2017-07-18T00:59:06.516Z,0
2017-07-18T01:00:17.133Z,0
2017-07-18T01:01:27.425Z,0
2017-07-18T01:02:37.731Z,0
2017-07-18T01:03:48.031Z,0
2017-07-18T01:04:58.000Z,0
2017-07-18T01:06:08.212Z,0
2017-07-18T01:07:18.183Z,0
2017-07-18T01:08:28.480Z,0
2017-07-18T01:09:38.151Z,0
2017-07-18T01:10:48.468Z,0
2017-07-18T01:11:58.995Z,0
2017-07-18T01:13:08.992Z,0
2017-07-18T01:14:19.301Z,0
2017-07-18T01:15:29.559Z,0
2017-07-18T01:16:39.554Z,0
2017-07-18T01:17:50.093Z,0
2017-07-18T01:19:00.382Z,0
2017-07-18T01:20:10.039Z,0
2017-07-18T01:21:20.016Z,0
2017-07-18T01:22:30.333Z,0
2017-07-18T01:23:40.874Z,0
2017-07-18T01:24:51.175Z,0
2017-07-18T01:26:01.457Z,0
2017-07-18T01:27:11.118Z,0
2017-07-18T01:28:21.415Z,0
2017-07-18T01:29:31.950Z,0
2017-07-18T01:30:41.925Z,0
2017-07-18T01:31:51.898Z,0
2017-07-18T01:33:02.181Z,0
2017-07-18T01:34:12.483Z,0
2017-07-18T01:35:22.696Z,0
2017-07-18T01:36:32.661Z,0
2017-07-18T01:37:42.626Z,0
2017-07-18T01:38:52.311Z,0
2017-07-18T01:40:02.277Z,0
2017-07-18T01:41:12.510Z,0
2017-07-18T01:42:22.817Z,0
2017-07-18T01:43:32.788Z,0
2017-07-18T01:44:42.766Z,0
2017-07-18T01:45:52.738Z,0
2017-07-18T01:47:03.262Z,0
2017-07-18T01:48:13.538Z,0
2017-07-18T01:49:23.824Z,0
2017-07-18T01:50:34.148Z,0
2017-07-18T01:51:44.444Z,0
2017-07-18T01:52:54.674Z,0
2017-07-18T01:54:04.641Z,0
2017-07-18T01:55:14.594Z,0
2017-07-18T01:56:24.886Z,0
2017-07-18T01:57:35.164Z,0
2017-07-18T01:58:45.687Z,0
2017-07-18T01:59:55.673Z,0
2017-07-18T02:01:05.950Z,0
2017-07-18T02:02:16.249Z,0
2017-07-18T02:03:26.221Z,0
2017-07-18T02:04:36.766Z,0
2017-07-18T02:05:46.749Z,0
2017-07-18T02:06:57.035Z,0
2017-07-18T02:08:07.321Z,0
2017-07-18T02:09:16.980Z,0
2017-07-18T02:10:27.521Z,0
2017-07-18T02:11:37.793Z,0
2017-07-18T02:12:47.772Z,0
2017-07-18T02:13:58.063Z,0
2017-07-18T02:15:08.334Z,0
2017-07-18T02:16:18.592Z,0
2017-07-18T02:17:28.869Z,0
2017-07-18T02:18:38.868Z,0
2017-07-18T02:19:49.137Z,0
2017-07-18T02:20:59.098Z,0
2017-07-18T02:22:09.349Z,0
2017-07-18T02:23:19.627Z,0
2017-07-18T02:24:29.904Z,0
2017-07-18T02:25:39.862Z,0
2017-07-18T02:26:50.151Z,0
2017-07-18T02:28:00.728Z,0
2017-07-18T02:29:10.703Z,0
2017-07-18T02:30:20.699Z,0
2017-07-18T02:31:30.683Z,0
2017-07-18T02:32:40.967Z,0
2017-07-18T02:33:51.506Z,0
2017-07-18T02:35:01.812Z,0
2017-07-18T02:36:11.535Z,0
2017-07-18T02:37:21.807Z,0
2017-07-18T02:38:32.104Z,0
2017-07-18T02:39:41.998Z,0
2017-07-18T02:40:52.321Z,0
2017-07-18T02:42:02.635Z,0
2017-07-18T02:43:12.952Z,0
2017-07-18T02:44:22.922Z,0
2017-07-18T02:45:33.468Z,0
2017-07-18T02:46:43.513Z,0
2017-07-18T02:47:53.484Z,0
2017-07-18T02:49:03.449Z,0
2017-07-18T02:50:13.132Z,0
2017-07-18T02:51:23.656Z,0
2017-07-18T02:52:34.036Z,0
2017-07-18T02:53:43.704Z,5
2017-07-18T02:54:54.008Z,5
2017-07-18T02:56:03.994Z,5
2017-07-18T02:57:14.236Z,5
2017-07-18T02:58:23.911Z,5
2017-07-18T02:59:34.942Z,5
2017-07-18T03:00:45.246Z,5
2017-07-18T03:01:55.525Z,10
2017-07-18T03:03:06.078Z,10
2017-07-18T03:04:16.365Z,10
2017-07-18T03:05:26.328Z,10
2017-07-18T03:06:36.610Z,15
2017-07-18T03:07:46.597Z,15
2017-07-18T03:08:57.140Z,15
2017-07-18T03:10:07.125Z,15
2017-07-18T03:11:17.403Z,20
2017-07-18T03:12:27.693Z,20
2017-07-18T03:13:37.976Z,20
2017-07-18T03:14:48.522Z,25
2017-07-18T03:15:58.794Z,25
2017-07-18T03:17:09.077Z,30
2017-07-18T03:18:19.354Z,30
2017-07-18T03:19:29.305Z,35
2017-07-18T03:20:39.843Z,35
2017-07-18T03:21:49.509Z,40
2017-07-18T03:22:59.486Z,45
2017-07-18T03:24:09.485Z,45
2017-07-18T03:25:19.764Z,45
2017-07-18T03:26:29.987Z,50
2017-07-18T03:27:39.966Z,50
2017-07-18T03:28:50.262Z,55
2017-07-18T03:29:59.936Z,55
2017-07-18T03:31:10.232Z,60
2017-07-18T03:32:20.504Z,60
2017-07-18T03:33:30.492Z,60
2017-07-18T03:34:40.782Z,65
2017-07-18T03:35:50.752Z,65
2017-07-18T03:37:00.419Z,70
2017-07-18T03:38:10.985Z,70
2017-07-18T03:39:20.949Z,75
2017-07-18T03:40:30.920Z,75
2017-07-18T03:41:40.889Z,80
2017-07-18T03:42:51.166Z,80
2017-07-18T03:44:01.701Z,85
2017-07-18T03:45:11.996Z,85
2017-07-18T03:46:22.292Z,90
2017-07-18T03:47:32.255Z,90
2017-07-18T03:48:42.545Z,95
2017-07-18T03:49:53.091Z,95
2017-07-18T03:51:03.398Z,100
2017-07-18T03:52:13.680Z,100
2017-07-18T03:53:23.955Z,105
2017-07-18T03:54:33.644Z,105
2017-07-18T03:55:43.860Z,110
2017-07-18T03:56:54.152Z,110
2017-07-18T03:58:04.449Z,115
2017-07-18T03:59:14.758Z,115
2017-07-18T04:00:24.424Z,120
2017-07-18T04:01:34.957Z,120
2017-07-18T04:02:44.944Z,125
2017-07-18T04:03:55.229Z,125
2017-07-18T04:05:05.514Z,130
2017-07-18T04:06:15.493Z,130
2017-07-18T04:07:26.038Z,135
2017-07-18T04:08:35.732Z,135
2017-07-18T04:09:46.040Z,135
2017-07-18T04:10:56.351Z,140
2017-07-18T04:12:06.633Z,140
2017-07-18T04:13:17.171Z,145
2017-07-18T04:14:27.485Z,145
2017-07-18T04:15:37.775Z,150
2017-07-18T04:16:48.077Z,150
2017-07-18T04:17:58.051Z,155
2017-07-18T04:19:08.604Z,155
2017-07-18T04:20:18.904Z,155
2017-07-18T04:21:29.192Z,160
2017-07-18T04:22:38.882Z,160
2017-07-18T04:23:49.160Z,165
2017-07-18T04:24:59.395Z,165
2017-07-18T04:26:09.373Z,165
2017-07-18T04:27:19.664Z,170
2017-07-18T04:28:29.964Z,170
2017-07-18T04:29:39.942Z,175
2017-07-18T04:30:50.479Z,175
2017-07-18T04:32:00.770Z,175
2017-07-18T04:33:10.445Z,180
2017-07-18T04:34:20.751Z,180
2017-07-18T04:35:31.018Z,180
2017-07-18T04:36:41.561Z,185
2017-07-18T04:37:51.526Z,185
2017-07-18T04:39:01.814Z,185
2017-07-18T04:40:12.099Z,190
2017-07-18T04:41:22.070Z,190
2017-07-18T04:42:32.301Z,190
2017-07-18T04:43:42.297Z,195
2017-07-18T04:44:52.570Z,195
2017-07-18T04:46:02.844Z,195
2017-07-18T04:47:13.121Z,200
2017-07-18T04:48:23.666Z,200
2017-07-18T04:49:33.948Z,205
2017-07-18T04:50:44.236Z,205
2017-07-18T04:51:54.212Z,205
2017-07-18T04:53:04.508Z,205
2017-07-18T04:54:14.441Z,210
2017-07-18T04:55:24.718Z,210
2017-07-18T04:56:35.005Z,210
2017-07-18T04:57:44.655Z,215
2017-07-18T04:58:54.638Z,215
2017-07-18T05:00:05.188Z,215
2017-07-18T05:01:15.471Z,215
2017-07-18T05:02:25.766Z,220
2017-07-18T05:03:36.056Z,220
2017-07-18T05:04:46.048Z,220
2017-07-18T05:05:56.602Z,225
2017-07-18T05:07:06.591Z,225
2017-07-18T05:08:16.880Z,225
2017-07-18T05:09:26.848Z,230
2017-07-18T05:10:37.144Z,230
2017-07-18T05:11:47.350Z,230
2017-07-18T05:12:57.059Z,230
2017-07-18T05:14:06.423Z,230
2017-07-18T05:15:16.707Z,235
2017-07-18T05:16:27.009Z,235
2017-07-18T05:17:37.212Z,235
2017-07-18T05:18:46.890Z,235
2017-07-18T05:19:57.179Z,240
2017-07-18T05:21:07.457Z,240
2017-07-18T05:22:17.780Z,240
2017-07-18T05:23:28.320Z,240
2017-07-18T05:24:38.003Z,240
2017-07-18T05:25:48.294Z,245
2017-07-18T05:26:58.601Z,245
2017-07-18T05:28:08.897Z,245
2017-07-18T05:29:19.428Z,245
2017-07-18T05:30:29.712Z,245
2017-07-18T05:31:39.707Z,245
2017-07-18T05:32:49.991Z,245
2017-07-18T05:34:00.281Z,245
2017-07-18T05:35:10.884Z,250
2017-07-18T05:36:21.181Z,250
2017-07-18T05:37:31.146Z,250
2017-07-18T05:38:41.419Z,250
2017-07-18T05:39:51.702Z,250
2017-07-18T05:41:02.252Z,255
2017-07-18T05:42:12.555Z,255
2017-07-18T05:43:22.848Z,255
2017-07-18T05:44:32.525Z,255
2017-07-18T05:45:42.495Z,255
2017-07-18T05:46:53.036Z,260
2017-07-18T05:48:03.324Z,260
2017-07-18T05:49:13.621Z,260
2017-07-18T05:50:23.282Z,260
2017-07-18T05:51:33.805Z,265
2017-07-18T05:52:44.354Z,265
2017-07-18T05:53:54.655Z,270
2017-07-18T05:55:04.641Z,265
2017-07-18T05:56:14.939Z,265
2017-07-18T05:57:25.209Z,265
2017-07-18T05:58:35.760Z,270
2017-07-18T05:59:46.047Z,270
2017-07-18T06:00:56.052Z,270
2017-07-18T06:02:06.069Z,270
2017-07-18T06:03:16.040Z,270
2017-07-18T06:04:26.642Z,275
2017-07-18T06:05:36.617Z,275
2017-07-18T06:06:46.290Z,275
2017-07-18T06:07:56.004Z,275
2017-07-18T06:09:06.334Z,275
2017-07-18T06:10:16.885Z,280
2017-07-18T06:11:26.877Z,280
2017-07-18T06:12:36.953Z,280
2017-07-18T06:13:47.212Z,280
2017-07-18T06:14:57.517Z,280
2017-07-18T06:16:08.163Z,285
2017-07-18T06:17:18.187Z,285
2017-07-18T06:18:28.489Z,285
2017-07-18T06:19:38.769Z,285
2017-07-18T06:20:49.055Z,285
2017-07-18T06:21:59.292Z,290
2017-07-18T06:23:08.974Z,290
2017-07-18T06:24:19.273Z,290
2017-07-18T06:25:29.559Z,290
2017-07-18T06:26:39.551Z,295
2017-07-18T06:27:50.109Z,295
2017-07-18T06:29:00.406Z,300
2017-07-18T06:30:10.748Z,300
2017-07-18T06:31:20.733Z,305
2017-07-18T06:32:30.724Z,305
2017-07-18T06:33:40.964Z,305
2017-07-18T06:34:51.279Z,310
2017-07-18T06:36:01.252Z,310
2017-07-18T06:37:11.255Z,320
2017-07-18T06:38:21.588Z,315
2017-07-18T06:39:31.816Z,315
2017-07-18T06:40:42.130Z,315
2017-07-18T06:41:52.142Z,320
2017-07-18T06:43:02.433Z,320
2017-07-18T06:44:12.762Z,320
2017-07-18T06:45:23.347Z,325
2017-07-18T06:46:33.660Z,325
2017-07-18T06:47:43.983Z,325
2017-07-18T06:48:53.982Z,325
2017-07-18T06:50:04.539Z,325
2017-07-18T06:51:15.121Z,330
2017-07-18T06:52:25.455Z,330
2017-07-18T06:53:35.467Z,330
2017-07-18T06:54:45.792Z,330
2017-07-18T06:55:55.457Z,330
2017-07-18T06:57:06.019Z,335
2017-07-18T06:58:16.036Z,335
2017-07-18T06:59:26.008Z,335
2017-07-18T07:00:36.333Z,335
2017-07-18T07:01:46.663Z,340
2017-07-18T07:02:57.212Z,340
2017-07-18T07:04:06.867Z,340
2017-07-18T07:05:17.209Z,340
2017-07-18T07:06:27.536Z,345
2017-07-18T07:07:37.853Z,345
2017-07-18T07:08:48.456Z,345
2017-07-18T07:09:58.758Z,345
2017-07-18T07:11:08.772Z,350
2017-07-18T07:12:18.784Z,350
2017-07-18T07:13:28.758Z,350
2017-07-18T07:14:39.311Z,360
2017-07-18T07:15:49.637Z,350
2017-07-18T07:16:59.950Z,350
2017-07-18T07:18:10.255Z,350
2017-07-18T07:19:20.240Z,350
2017-07-18T07:20:30.841Z,355
2017-07-18T07:21:41.150Z,355
2017-07-18T07:22:51.484Z,355
2017-07-18T07:24:01.783Z,355
2017-07-18T07:25:11.771Z,360
2017-07-18T07:26:22.343Z,360
2017-07-18T07:27:32.326Z,360
2017-07-18T07:28:42.354Z,365
2017-07-18T07:29:52.341Z,365
2017-07-18T07:31:02.619Z,365
2017-07-18T07:32:12.560Z,365
2017-07-18T07:33:22.838Z,365
2017-07-18T07:34:33.155Z,370
2017-07-18T07:35:43.122Z,370
2017-07-18T07:36:53.417Z,370
2017-07-18T07:38:03.972Z,370
2017-07-18T07:39:14.289Z,375
2017-07-18T07:40:24.615Z,375
2017-07-18T07:41:34.919Z,380
2017-07-18T07:42:45.205Z,380
2017-07-18T07:43:55.752Z,390
2017-07-18T07:45:05.717Z,390
2017-07-18T07:46:15.686Z,395
2017-07-18T07:47:25.674Z,400
2017-07-18T07:48:35.974Z,405
2017-07-18T07:49:46.515Z,415
2017-07-18T07:50:56.805Z,420
2017-07-18T07:52:07.124Z,440
2017-07-18T07:53:17.100Z,450
2017-07-18T07:54:27.384Z,465
2017-07-18T07:55:37.619Z,500
2017-07-18T07:56:47.911Z,505
2017-07-18T07:57:58.309Z,515
2017-07-18T07:59:08.293Z,540
2017-07-18T08:00:18.591Z,555
2017-07-18T08:01:29.137Z,590
2017-07-18T08:02:39.125Z,595
2017-07-18T08:03:49.413Z,625
2017-07-18T08:04:59.401Z,635
2017-07-18T08:06:09.688Z,655
2017-07-18T08:07:19.933Z,685
2017-07-18T08:08:30.258Z,730
2017-07-18T08:09:40.563Z,735
2017-07-18T08:10:50.859Z,710
2017-07-18T08:12:01.170Z,715
2017-07-18T08:13:11.403Z,730
2017-07-18T08:14:21.399Z,715
2017-07-18T08:15:31.722Z,705
2017-07-18T08:16:42.035Z,675
2017-07-18T08:17:51.997Z,660
2017-07-18T08:19:02.546Z,635
2017-07-18T08:20:12.533Z,625
2017-07-18T08:21:22.837Z,620
2017-07-18T08:22:32.807Z,605
2017-07-18T08:23:43.096Z,595
2017-07-18T08:24:53.699Z,610
2017-07-18T08:26:03.665Z,575
2017-07-18T08:27:13.647Z,555
2017-07-18T08:28:23.977Z,550
2017-07-18T08:29:34.278Z,550
2017-07-18T08:30:44.532Z,565
2017-07-18T08:31:54.878Z,575
2017-07-18T08:33:05.177Z,585
2017-07-18T08:34:15.467Z,595
2017-07-18T08:35:25.757Z,615
2017-07-18T08:36:35.976Z,625
2017-07-18T08:37:46.275Z,690
2017-07-18T08:38:56.247Z,1195
2017-07-18T08:40:06.529Z,1355
2017-07-18T08:41:16.815Z,1425
2017-07-18T08:42:27.370Z,1520
2017-07-18T08:43:37.691Z,1550
2017-07-18T08:44:47.989Z,1655
2017-07-18T08:45:58.281Z,1565
2017-07-18T08:47:08.289Z,1535
2017-07-18T08:48:18.203Z,1370
2017-07-18T08:49:28.219Z,845
2017-07-18T08:50:38.211Z,910
2017-07-18T08:51:47.911Z,1165
2017-07-18T08:52:58.316Z,755
2017-07-18T08:54:08.290Z,895
2017-07-18T08:55:18.604Z,1150
2017-07-18T08:56:28.922Z,1600
2017-07-18T08:57:39.231Z,1685
2017-07-18T08:58:49.202Z,1855
2017-07-18T08:59:59.803Z,1635
2017-07-18T09:01:10.108Z,1810
2017-07-18T09:02:20.418Z,1920
2017-07-18T09:03:30.411Z,1895
2017-07-18T09:04:40.421Z,1760
2017-07-18T09:05:50.967Z,1295
2017-07-18T09:07:00.936Z,990
2017-07-18T09:08:10.927Z,980
2017-07-18T09:09:21.280Z,1895
2017-07-18T09:10:31.573Z,1940
2017-07-18T09:11:42.134Z,1260
2017-07-18T09:12:52.128Z,1360
2017-07-18T09:14:02.150Z,850
2017-07-18T09:15:12.398Z,825
2017-07-18T09:16:22.689Z,770
2017-07-18T09:17:32.944Z,735
2017-07-18T09:18:43.293Z,755
2017-07-18T09:19:53.585Z,675
2017-07-18T09:21:03.596Z,660
2017-07-18T09:22:13.595Z,675
2017-07-18T09:23:24.137Z,695
2017-07-18T09:24:34.439Z,760
2017-07-18T09:25:44.745Z,1095
2017-07-18T09:26:54.772Z,790
2017-07-18T09:28:04.771Z,765
2017-07-18T09:29:15.329Z,840
2017-07-18T09:30:25.325Z,1210
2017-07-18T09:31:35.633Z,2080
2017-07-18T09:32:45.927Z,1730
2017-07-18T09:33:56.241Z,2090
2017-07-18T09:35:06.826Z,2180
2017-07-18T09:36:17.134Z,2185
2017-07-18T09:37:27.440Z,2045
2017-07-18T09:38:37.721Z,2035
2017-07-18T09:39:48.018Z,1245
2017-07-18T09:40:58.266Z,810
2017-07-18T09:42:08.596Z,800
2017-07-18T09:43:18.886Z,855
2017-07-18T09:44:29.200Z,1170
2017-07-18T09:45:39.502Z,1565
2017-07-18T09:46:49.739Z,1735
2017-07-18T09:48:00.049Z,2165
2017-07-18T09:49:10.037Z,2110
2017-07-18T09:50:20.017Z,2100
2017-07-18T09:51:30.317Z,2130
2017-07-18T09:52:40.881Z,1815
2017-07-18T09:53:50.774Z,1500
2017-07-18T09:55:01.051Z,1325
2017-07-18T09:56:11.360Z,1330
2017-07-18T09:57:21.664Z,985
2017-07-18T09:58:31.922Z,1935
2017-07-18T09:59:41.931Z,2215
2017-07-18T10:00:51.934Z,2225
2017-07-18T10:02:02.261Z,1955
2017-07-18T10:03:12.258Z,2295
2017-07-18T10:04:22.506Z,2340
2017-07-18T10:05:32.842Z,2345
2017-07-18T10:06:43.154Z,2380
2017-07-18T10:07:53.161Z,2375
2017-07-18T10:09:03.135Z,2510
2017-07-18T10:10:13.673Z,2595
2017-07-18T10:11:23.971Z,2500
2017-07-18T10:12:33.645Z,1410
2017-07-18T10:13:43.634Z,1255
2017-07-18T10:14:53.929Z,1475
2017-07-18T10:16:04.199Z,1085
2017-07-18T10:17:14.509Z,1105
2017-07-18T10:18:24.809Z,1055
2017-07-18T10:19:34.786Z,1090
2017-07-18T10:20:45.079Z,1375
2017-07-18T10:21:55.622Z,1675
2017-07-18T10:23:05.933Z,2365
2017-07-18T10:24:15.311Z,1120
2017-07-18T10:25:25.616Z,1080
2017-07-18T10:26:35.914Z,1085
2017-07-18T10:27:46.153Z,2550
2017-07-18T10:28:55.835Z,2585
2017-07-18T10:30:05.826Z,2435
2017-07-18T10:31:16.128Z,2440
2017-07-18T10:32:26.467Z,2515
2017-07-18T10:33:36.717Z,2515
2017-07-18T10:34:47.030Z,2575
2017-07-18T10:35:57.020Z,2455
2017-07-18T10:37:07.323Z,2600
2017-07-18T10:38:17.621Z,2640
2017-07-18T10:39:28.207Z,2585
2017-07-18T10:40:38.496Z,2540
2017-07-18T10:41:48.484Z,2480
2017-07-18T10:42:58.784Z,2505
2017-07-18T10:44:09.069Z,2495
2017-07-18T10:45:19.307Z,2465
2017-07-18T10:46:29.318Z,2570
2017-07-18T10:47:39.710Z,2795
2017-07-18T10:48:49.696Z,2780
2017-07-18T10:49:59.976Z,2680
2017-07-18T10:51:10.216Z,2550
2017-07-18T10:52:20.774Z,2440
2017-07-18T10:53:31.081Z,2390
2017-07-18T10:54:41.384Z,2325
2017-07-18T10:55:51.704Z,2415
2017-07-18T10:57:02.270Z,2590
2017-07-18T10:58:12.267Z,2670
2017-07-18T10:59:22.558Z,2605
2017-07-18T11:00:32.891Z,2555
2017-07-18T11:01:43.213Z,2485
2017-07-18T11:02:53.770Z,2490
2017-07-18T11:04:04.092Z,2870
2017-07-18T11:05:14.384Z,2970
2017-07-18T11:06:24.392Z,2600
2017-07-18T11:07:34.369Z,2585
2017-07-18T11:08:44.927Z,2720
2017-07-18T11:09:54.925Z,2795
2017-07-18T11:11:04.916Z,2825
2017-07-18T11:12:14.926Z,2735
2017-07-18T11:13:25.239Z,2600
2017-07-18T11:14:35.187Z,2960
2017-07-18T11:15:45.484Z,3545
2017-07-18T11:16:55.777Z,3460
2017-07-18T11:18:06.087Z,3190
2017-07-18T11:19:16.387Z,2765
2017-07-18T11:20:27.009Z,2825
2017-07-18T11:21:36.680Z,2895
2017-07-18T11:22:46.676Z,2860
2017-07-18T11:23:56.671Z,2960
2017-07-18T11:25:06.663Z,2940
2017-07-18T11:26:17.224Z,2940
2017-07-18T11:27:27.546Z,2975
2017-07-18T11:28:37.872Z,2955
2017-07-18T11:29:48.157Z,3030
2017-07-18T11:30:58.453Z,2930
2017-07-18T11:32:08.697Z,2825
2017-07-18T11:33:19.003Z,2640
2017-07-18T11:34:28.997Z,2480
2017-07-18T11:35:39.308Z,2550
2017-07-18T11:36:49.619Z,2710
2017-07-18T11:38:00.164Z,2610
2017-07-18T11:39:10.145Z,2585
2017-07-18T11:40:20.462Z,2865
2017-07-18T11:41:30.459Z,2855
2017-07-18T11:42:40.775Z,2745
2017-07-18T11:43:51.352Z,2625
2017-07-18T11:45:01.651Z,2625
2017-07-18T11:46:11.964Z,2890
2017-07-18T11:47:22.257Z,2880
2017-07-18T11:48:32.430Z,2835
2017-07-18T11:49:43.098Z,2780
2017-07-18T11:50:53.088Z,3015
2017-07-18T11:52:03.382Z,3155
2017-07-18T11:53:13.691Z,3155
2017-07-18T11:54:23.664Z,3090
2017-07-18T11:55:33.899Z,3080
2017-07-18T11:56:44.214Z,2970
2017-07-18T11:57:54.533Z,2900
2017-07-18T11:59:04.851Z,2905
2017-07-18T12:00:14.846Z,2940
2017-07-18T12:01:25.392Z,2785
2017-07-18T12:02:35.392Z,3010
2017-07-18T12:03:45.105Z,3330
2017-07-18T12:04:55.409Z,3185
2017-07-18T12:06:05.411Z,1460
2017-07-18T12:07:15.636Z,1230
2017-07-18T12:08:25.928Z,2540
2017-07-18T12:09:36.216Z,2755
2017-07-18T12:10:46.530Z,2990
2017-07-18T12:11:56.835Z,2705
2017-07-18T12:13:07.372Z,3060
2017-07-18T12:14:17.359Z,3060
2017-07-18T12:15:27.362Z,2910
2017-07-18T12:16:37.674Z,3075
2017-07-18T12:17:47.984Z,3170
2017-07-18T12:18:58.226Z,3200
2017-07-18T12:20:08.239Z,3245
2017-07-18T12:21:18.528Z,3275
2017-07-18T12:22:28.828Z,3255
2017-07-18T12:23:38.842Z,3140
2017-07-18T12:24:49.377Z,3155
2017-07-18T12:25:59.696Z,3235
2017-07-18T12:27:09.686Z,3155
2017-07-18T12:28:19.967Z,3135
2017-07-18T12:29:30.273Z,3195
2017-07-18T12:30:40.827Z,3095
2017-07-18T12:31:50.826Z,3015
2017-07-18T12:33:01.129Z,3160
2017-07-18T12:34:11.122Z,3130
2017-07-18T12:35:21.440Z,3055
2017-07-18T12:36:31.979Z,2960
2017-07-18T12:37:41.961Z,3055
2017-07-18T12:38:52.286Z,3195
2017-07-18T12:40:02.589Z,3260
2017-07-18T12:41:12.595Z,3210
2017-07-18T12:42:23.145Z,3165
2017-07-18T12:43:33.479Z,3345
2017-07-18T12:44:43.770Z,3370
2017-07-18T12:45:54.085Z,3160
2017-07-18T12:47:04.405Z,3255
2017-07-18T12:48:14.956Z,3240
2017-07-18T12:49:25.279Z,3205
2017-07-18T12:50:35.251Z,3230
2017-07-18T12:51:45.552Z,3250
2017-07-18T12:52:55.860Z,3250
2017-07-18T12:54:05.790Z,3295
2017-07-18T12:55:15.767Z,3385
2017-07-18T12:56:25.735Z,3445
2017-07-18T12:57:35.727Z,3255
2017-07-18T12:58:46.022Z,3260
2017-07-18T12:59:56.580Z,3280
2017-07-18T13:01:06.584Z,3325
2017-07-18T13:02:16.596Z,3260
2017-07-18T13:03:26.890Z,3150
2017-07-18T13:04:37.189Z,3285
2017-07-18T13:05:47.789Z,3285
2017-07-18T13:06:58.101Z,3280
2017-07-18T13:08:08.406Z,2635
2017-07-18T13:09:18.398Z,2460
2017-07-18T13:10:28.411Z,2985
2017-07-18T13:11:38.981Z,3095
2017-07-18T13:12:48.964Z,3115
2017-07-18T13:13:58.668Z,3100
2017-07-18T13:15:08.991Z,3095
2017-07-18T13:16:18.992Z,3230
2017-07-18T13:17:29.590Z,3285
2017-07-18T13:18:39.596Z,3155
2017-07-18T13:19:49.894Z,3325
2017-07-18T13:20:59.888Z,2965
2017-07-18T13:22:10.194Z,3010
2017-07-18T13:23:20.730Z,2870
2017-07-18T13:24:31.061Z,3090
2017-07-18T13:25:41.396Z,3280
2017-07-18T13:26:51.724Z,3240
2017-07-18T13:28:01.711Z,3325
2017-07-18T13:29:12.265Z,3290
2017-07-18T13:30:22.267Z,3190
2017-07-18T13:31:32.615Z,3235
2017-07-18T13:32:42.953Z,3285
2017-07-18T13:33:53.260Z,3325
2017-07-18T13:35:03.504Z,3205
2017-07-18T13:36:13.801Z,3055
2017-07-18T13:37:23.806Z,3100
2017-07-18T13:38:34.119Z,3135
2017-07-18T13:39:44.444Z,3270
2017-07-18T13:40:55.059Z,3615
2017-07-18T13:42:05.375Z,3615
2017-07-18T13:43:15.675Z,3040
2017-07-18T13:44:25.990Z,3080
2017-07-18T13:45:36.300Z,3095
2017-07-18T13:46:46.860Z,3110
2017-07-18T13:47:56.894Z,2980
2017-07-18T13:49:07.186Z,3090
2017-07-18T13:50:17.178Z,3150
2017-07-18T13:51:27.164Z,3155
2017-07-18T13:52:37.122Z,3125
2017-07-18T13:53:47.133Z,3215
2017-07-18T13:54:57.119Z,3050
2017-07-18T13:56:07.105Z,3095
2017-07-18T13:57:17.421Z,3120
2017-07-18T13:58:27.723Z,2980
2017-07-18T13:59:38.030Z,3050
2017-07-18T14:00:48.015Z,3080
2017-07-18T14:01:58.330Z,3040
2017-07-18T14:03:08.316Z,3065
2017-07-18T14:04:18.870Z,3120
2017-07-18T14:05:28.880Z,3140
2017-07-18T14:06:38.876Z,3160
2017-07-18T14:07:49.193Z,2975
2017-07-18T14:08:59.200Z,3070
2017-07-18T14:10:09.432Z,3195
2017-07-18T14:11:19.735Z,3175
2017-07-18T14:12:30.036Z,3155
2017-07-18T14:13:40.381Z,3170
2017-07-18T14:14:50.700Z,3080
2017-07-18T14:16:00.949Z,3105
2017-07-18T14:17:11.248Z,3155
2017-07-18T14:18:21.555Z,3000
2017-07-18T14:19:31.835Z,2960
2017-07-18T14:20:41.849Z,3025
2017-07-18T14:21:52.418Z,3120
2017-07-18T14:23:02.718Z,3095
2017-07-18T14:24:13.026Z,3080
2017-07-18T14:25:22.713Z,3045
2017-07-18T14:26:33.027Z,3030
2017-07-18T14:27:43.589Z,3015
2017-07-18T14:28:53.619Z,2850
2017-07-18T14:30:03.632Z,2810
2017-07-18T14:31:13.635Z,2880
2017-07-18T14:32:23.695Z,3190
2017-07-18T14:33:34.245Z,3080
2017-07-18T14:34:44.557Z,3020
2017-07-18T14:35:54.855Z,2970
2017-07-18T14:37:04.548Z,3105
2017-07-18T14:38:14.853Z,3030
2017-07-18T14:39:25.407Z,2500
2017-07-18T14:40:35.714Z,2835
2017-07-18T14:41:46.020Z,2650
2017-07-18T14:42:56.328Z,2630
2017-07-18T14:44:06.317Z,2490
2017-07-18T14:45:16.571Z,2250
2017-07-18T14:46:26.879Z,2535
2017-07-18T14:47:37.178Z,2710
2017-07-18T14:48:47.172Z,2530
2017-07-18T14:49:57.489Z,2695
2017-07-18T14:51:07.734Z,2725
2017-07-18T14:52:18.055Z,2890
2017-07-18T14:53:28.371Z,2945
2017-07-18T14:54:38.669Z,2990
2017-07-18T14:55:48.970Z,2950
2017-07-18T14:56:59.210Z,2955
2017-07-18T14:58:09.506Z,2910
2017-07-18T14:59:19.812Z,2830
2017-07-18T15:00:30.111Z,2760
2017-07-18T15:01:40.428Z,2725
2017-07-18T15:02:50.723Z,2560
2017-07-18T15:04:01.022Z,2660
2017-07-18T15:05:11.328Z,2760
2017-07-18T15:06:21.635Z,2690
2017-07-18T15:07:31.609Z,2565
2017-07-18T15:08:42.153Z,2565
2017-07-18T15:09:52.469Z,2530
2017-07-18T15:11:02.780Z,2495
2017-07-18T15:12:13.065Z,2510
2017-07-18T15:13:23.365Z,2560
2017-07-18T15:14:33.926Z,2655
2017-07-18T15:15:43.909Z,2655
2017-07-18T15:16:54.205Z,2565
2017-07-18T15:18:04.194Z,2310
2017-07-18T15:19:14.511Z,2435
2017-07-18T15:20:25.060Z,2330
2017-07-18T15:21:35.376Z,2175
2017-07-18T15:22:45.653Z,2125
2017-07-18T15:23:55.668Z,2080
2017-07-18T15:25:05.677Z,2095
2017-07-18T15:26:15.917Z,2075
2017-07-18T15:27:25.906Z,1825
2017-07-18T15:28:35.895Z,1875
2017-07-18T15:29:46.207Z,1995
2017-07-18T15:30:56.534Z,2375
2017-07-18T15:32:07.100Z,2390
2017-07-18T15:33:17.414Z,2230
2017-07-18T15:34:27.396Z,2275
2017-07-18T15:35:37.405Z,2055
2017-07-18T15:36:47.397Z,2090
2017-07-18T15:37:57.951Z,2130
2017-07-18T15:39:08.242Z,2125
2017-07-18T15:40:18.556Z,2315
2017-07-18T15:41:28.243Z,2080
2017-07-18T15:42:38.536Z,2075
2017-07-18T15:43:48.763Z,2120
2017-07-18T15:44:59.068Z,2205
2017-07-18T15:46:09.088Z,2310
2017-07-18T15:47:19.083Z,2290
2017-07-18T15:48:29.062Z,2140
2017-07-18T15:49:39.635Z,2095
2017-07-18T15:50:49.623Z,2000
2017-07-18T15:52:00.065Z,2055
2017-07-18T15:53:10.060Z,2155
2017-07-18T15:54:20.362Z,1890
2017-07-18T15:55:30.913Z,2080
2017-07-18T15:56:40.908Z,2150
2017-07-18T15:57:50.892Z,2185
2017-07-18T15:59:01.184Z,2040
2017-07-18T16:00:11.178Z,2040
2017-07-18T16:01:21.416Z,1805
2017-07-18T16:02:31.128Z,1805
2017-07-18T16:03:40.819Z,1760
2017-07-18T16:04:51.118Z,1620
2017-07-18T16:06:01.403Z,1795